CYDP/YDP METAR and TAF weather

Enter ICAO airport designator
Station Type Date Time Source
CYDP METAR 2020/07/13 14:00 UTC NOAA

CYDP 131400Z 34009G15KT 15SM FEW019 FEW110 FEW220 12/05 A2991 RMK CF1AC1CI1 TR CF TR CI SLP131


Station Type Date Time Source
CYDP Decoded METAR 2020/07/13 14:00 UTC NOAA

Nain, Nfld, Canada (CYDP) 56-33N 061-41W 7M
Jul 13, 2020 - 10:00 AM EDT / 2020.07.13 1400 UTC
Wind: from the NNW (340 degrees) at 10 MPH (9 KT) gusting to 17 MPH (15 KT):0
Visibility: 15 mile(s):0
Sky conditions: mostly clear
Temperature: 53 F (12 C)
Dew Point: 41 F (5 C)
Relative Humidity: 62%
Pressure (altimeter): 29.91 in. Hg (1012 hPa)
ob: CYDP 131400Z 34009G15KT 15SM FEW019 FEW110 FEW220 12/05 A2991 RMK CF1AC1CI1 TR CF TR CI SLP131
cycle: 14

Station Type Date Time Source
CYDP TAF 2020/07/13 14:00 UTC NOAA

TAF CYDP 131338Z 1314/1323 31012KT P6SM SCT060 BKN110
BECMG 1321/1323 01008KT BKN040
RMK NXT FCST BY 132000Z

Example: see airport list